Time;durP1;ratioP1;P1;durP2;ratioP2;P2;SDS_P1;SDS_P2;PMS_P1;PMS_P2;Temp;Humidity;BMP_temperature;BMP_pressure;BME280_temperature;BME280_humidity;BME280_pressure;Samples;Min_cycle;Max_cycle;Signal;HPM_P1;HPM_P2
2023/06/26 04:01:54;;;;;;;0.70;0.10;;;23.00;1.00;;;;;;5401027;23;20521;-68
2023/06/26 04:04:23;;;;;;;0.70;0.10;;;;;;;;;;4952836;28;20450;-68
2023/06/26 04:06:51;;;;;;;0.70;0.10;;;22.80;1.00;;;;;;4956891;29;20479;-68
2023/06/26 04:09:19;;;;;;;0.70;0.20;;;;;;;;;;4956807;29;20442;-69
2023/06/26 04:11:48;;;;;;;0.70;0.20;;;22.70;1.00;;;;;;4953329;29;20469;-68
2023/06/26 04:14:15;;;;;;;0.70;0.20;;;22.60;1.00;;;;;;4969449;23;20860;-71
2023/06/26 04:16:45;;;;;;;0.70;0.20;;;;;;;;;;4978714;28;20513;-71
2023/06/26 04:19:14;;;;;;;0.70;0.10;;;22.70;1.00;;;;;;4974964;28;20639;-72
2023/06/26 04:21:42;;;;;;;0.70;0.13;;;22.70;1.00;;;;;;4968867;28;20444;-70
2023/06/26 04:24:10;;;;;;;0.80;0.50;;;22.50;1.00;;;;;;4987714;28;20535;-72
2023/06/26 04:26:42;;;;;;;0.70;0.20;;;22.60;1.00;;;;;;4988844;28;20480;-72
2023/06/26 04:29:10;;;;;;;0.70;0.10;;;22.70;1.00;;;;;;4982431;28;20462;-72
2023/06/26 04:31:39;;;;;;;0.70;0.20;;;22.70;1.00;;;;;;4961640;28;20918;-70
2023/06/26 04:34:08;;;;;;;0.70;0.10;;;;;;;;;;4965513;28;20485;-70
2023/06/26 04:36:38;;;;;;;0.70;0.10;;;22.90;1.00;;;;;;4956574;28;20449;-70
2023/06/26 04:39:07;;;;;;;0.70;0.10;;;23.00;1.00;;;;;;4962915;28;20462;-71
2023/06/26 04:41:34;;;;;;;1.23;1.13;;;23.00;1.00;;;;;;4973478;28;20472;-71
2023/06/26 04:44:02;;;;;;;0.70;0.20;;;23.00;1.00;;;;;;4962357;28;20522;-71
2023/06/26 04:46:30;;;;;;;0.70;0.13;;;23.00;1.00;;;;;;4962594;29;20479;-72
2023/06/26 04:48:58;;;;;;;0.70;0.30;;;22.90;1.00;;;;;;4965242;29;20956;-72
2023/06/26 04:51:26;;;;;;;0.70;0.20;;;22.90;1.00;;;;;;4969067;29;20490;-71
2023/06/26 04:53:56;;;;;;;0.70;0.10;;;22.90;1.00;;;;;;4965504;29;20576;-71
2023/06/26 04:56:24;;;;;;;0.70;0.10;;;22.90;1.00;;;;;;4969468;28;20528;-70
2023/06/26 04:58:51;;;;;;;0.70;0.10;;;22.80;1.00;;;;;;4957472;28;20957;-71
2023/06/26 05:01:19;;;;;;;0.70;0.10;;;22.90;1.00;;;;;;4942840;29;20481;-72
2023/06/26 05:03:47;;;;;;;0.70;0.20;;;22.80;1.00;;;;;;4941030;29;20786;-70
2023/06/26 05:06:15;;;;;;;0.70;0.10;;;22.90;1.00;;;;;;4960960;28;20500;-69
2023/06/26 05:08:43;;;;;;;0.70;0.10;;;22.20;1.00;;;;;;4966676;28;20460;-72
2023/06/26 05:11:13;;;;;;;0.70;0.10;;;22.90;1.00;;;;;;4955526;29;20482;-71
2023/06/26 05:13:41;;;;;;;0.70;0.10;;;23.10;1.00;;;;;;4947110;29;20453;-70
2023/06/26 05:16:10;;;;;;;0.70;0.20;;;23.20;1.00;;;;;;4942695;29;20518;-71
2023/06/26 05:18:38;;;;;;;0.70;0.20;;;23.20;1.00;;;;;;4943741;29;20475;-72
2023/06/26 05:21:06;;;;;;;0.70;0.20;;;23.40;1.00;;;;;;4962998;29;20486;-71
2023/06/26 05:23:35;;;;;;;0.70;0.20;;;23.70;1.00;;;;;;4947151;29;20518;-71
2023/06/26 05:26:04;;;;;;;0.70;0.20;;;23.70;1.00;;;;;;4962565;29;20505;-73
2023/06/26 05:28:35;;;;;;;0.70;0.10;;;23.90;1.00;;;;;;4959968;29;21016;-71
2023/06/26 05:31:05;;;;;;;0.70;0.10;;;23.90;1.00;;;;;;4970818;28;20547;-72
2023/06/26 05:33:36;;;;;;;0.70;0.20;;;24.20;1.00;;;;;;4971077;28;20457;-71
2023/06/26 05:36:05;;;;;;;0.70;0.20;;;24.30;1.00;;;;;;4944588;29;20519;-71
2023/06/26 05:38:34;;;;;;;0.70;0.10;;;24.30;1.00;;;;;;4940249;29;20483;-72
2023/06/26 05:41:02;;;;;;;0.70;0.10;;;24.50;1.00;;;;;;4939609;29;20503;-71
2023/06/26 05:43:30;;;;;;;0.70;0.20;;;24.60;1.00;;;;;;4941027;29;20451;-72
2023/06/26 05:46:00;;;;;;;0.70;0.10;;;24.70;1.00;;;;;;4941979;29;20557;-73
2023/06/26 05:48:28;;;;;;;0.70;0.10;;;24.80;1.00;;;;;;4940340;29;20573;-71
2023/06/26 05:50:57;;;;;;;0.70;0.10;;;24.80;1.00;;;;;;4960896;28;20483;-70
2023/06/26 05:53:25;;;;;;;0.70;0.10;;;24.80;1.00;;;;;;4970623;28;20503;-71
2023/06/26 05:55:54;;;;;;;0.70;0.10;;;24.80;1.00;;;;;;4962763;28;20510;-72
2023/06/26 05:58:24;;;;;;;0.70;0.20;;;24.80;1.00;;;;;;4966814;28;20501;-70
2023/06/26 06:00:52;;;;;;;0.70;0.20;;;25.10;1.00;;;;;;4954718;28;20468;-71
2023/06/26 06:03:22;;;;;;;0.70;0.10;;;25.20;1.00;;;;;;4944459;29;20522;-71
2023/06/26 06:05:50;;;;;;;0.70;0.10;;;25.30;1.00;;;;;;4948660;29;20555;-71
2023/06/26 06:08:18;;;;;;;0.70;0.20;;;25.30;1.00;;;;;;4954040;29;20538;-72
2023/06/26 06:10:46;;;;;;;0.70;0.10;;;25.40;1.00;;;;;;4944224;29;20447;-71
2023/06/26 06:13:14;;;;;;;0.70;0.17;;;25.50;1.00;;;;;;4942707;29;20454;-72
2023/06/26 06:15:42;;;;;;;0.70;0.10;;;25.60;1.00;;;;;;4952898;29;20498;-71
2023/06/26 06:18:11;;;;;;;0.70;0.20;;;25.60;1.00;;;;;;4958091;28;20558;-71
2023/06/26 06:20:43;;;;;;;0.70;0.20;;;25.60;1.00;;;;;;4960867;28;20518;-71
2023/06/26 06:23:11;;;;;;;0.70;0.10;;;25.60;1.00;;;;;;4940832;29;20457;-71
2023/06/26 06:25:38;;;;;;;0.70;0.30;;;25.70;1.00;;;;;;4946861;29;20510;-71
2023/06/26 06:28:07;;;;;;;0.70;0.10;;;25.70;1.00;;;;;;4946011;29;20578;-71
2023/06/26 06:30:35;;;;;;;2.40;1.80;;;25.80;1.00;;;;;;4953576;28;20494;-71
2023/06/26 06:33:12;;;;;;;0.70;0.20;;;25.60;1.00;;;;;;4967293;28;20497;-71
2023/06/26 06:35:40;;;;;;;1.30;0.60;;;25.60;1.00;;;;;;4955041;29;20509;-71
2023/06/26 06:38:10;;;;;;;1.20;0.73;;;25.00;1.00;;;;;;4953317;29;20532;-71
2023/06/26 06:40:37;;;;;;;15.13;2.00;;;25.00;1.00;;;;;;4961866;28;20442;-71
2023/06/26 06:43:06;;;;;;;0.70;0.30;;;24.80;1.00;;;;;;4968492;28;20453;-71
2023/06/26 06:45:37;;;;;;;0.90;0.70;;;24.80;1.00;;;;;;4976020;28;20468;-71
2023/06/26 06:48:06;;;;;;;3.93;1.50;;;24.90;1.00;;;;;;4974752;28;20508;-72
2023/06/26 06:50:34;;;;;;;0.83;0.37;;;24.80;1.00;;;;;;4975215;28;20449;-74
2023/06/26 06:53:01;;;;;;;0.70;0.40;;;24.80;1.00;;;;;;4972469;28;20445;-74
2023/06/26 06:55:32;;;;;;;0.70;0.20;;;24.90;1.00;;;;;;4954537;29;20912;-74
2023/06/26 06:58:00;;;;;;;0.70;0.20;;;;;;;;;;4955285;29;20534;-72
2023/06/26 07:00:32;;;;;;;0.70;0.10;;;25.10;1.00;;;;;;4957913;29;20466;-72
2023/06/26 07:03:00;;;;;;;0.70;0.10;;;25.20;1.00;;;;;;4956247;29;20885;-71
2023/06/26 07:05:29;;;;;;;0.70;0.20;;;25.40;1.00;;;;;;4954131;29;20883;-73
2023/06/26 07:07:56;;;;;;;1.50;1.40;;;25.30;1.00;;;;;;4942644;29;20483;-72
2023/06/26 07:10:30;;;;;;;1.40;0.73;;;25.30;1.00;;;;;;4943470;29;20506;-72
2023/06/26 07:13:01;;;;;;;0.70;0.10;;;25.20;1.00;;;;;;4944842;29;20843;-72
2023/06/26 07:15:32;;;;;;;0.70;0.20;;;25.30;1.00;;;;;;4940713;29;21009;-73
2023/06/26 07:18:00;;;;;;;1.47;1.37;;;25.20;1.00;;;;;;4952767;29;20499;-71
2023/06/26 07:20:28;;;;;;;2.10;1.90;;;25.10;1.00;;;;;;4948333;29;20470;-71
2023/06/26 07:22:56;;;;;;;0.70;0.20;;;25.10;1.00;;;;;;4956837;29;20455;-71
2023/06/26 07:25:24;;;;;;;2.13;1.23;;;25.20;1.00;;;;;;4957458;29;20484;-72
2023/06/26 07:27:52;;;;;;;0.70;0.10;;;25.40;1.00;;;;;;4958864;28;20928;-70
2023/06/26 07:30:22;;;;;;;0.80;0.30;;;25.40;1.00;;;;;;4949822;28;20988;-71
2023/06/26 07:32:50;;;;;;;1.73;1.00;;;25.60;1.00;;;;;;4968169;28;20541;-72
2023/06/26 07:35:19;;;;;;;1.13;1.03;;;;;;;;;;4944684;28;21077;-71
2023/06/26 07:37:47;;;;;;;1.33;0.37;;;25.70;1.00;;;;;;4958333;29;20479;-72
2023/06/26 07:40:17;;;;;;;1.33;1.03;;;25.60;1.00;;;;;;4954890;29;20453;-73
2023/06/26 07:42:46;;;;;;;2.60;2.33;;;25.40;1.00;;;;;;4955763;29;20555;-74
2023/06/26 07:45:14;;;;;;;0.70;0.40;;;25.40;1.00;;;;;;4956731;28;20575;-72
2023/06/26 07:47:44;;;;;;;6.63;3.83;;;25.40;1.00;;;;;;4955887;28;20502;-71
2023/06/26 07:50:12;;;;;;;1.17;1.07;;;25.50;1.00;;;;;;4942887;29;20799;-73
2023/06/26 07:52:40;;;;;;;0.70;0.10;;;25.50;1.00;;;;;;4943655;29;20478;-73
2023/06/26 07:55:08;;;;;;;1.00;0.77;;;25.70;1.00;;;;;;4945355;29;20510;-72
2023/06/26 07:57:36;;;;;;;1.00;0.60;;;25.70;1.00;;;;;;4954709;28;20879;-72
2023/06/26 08:00:06;;;;;;;0.93;0.50;;;25.80;1.00;;;;;;4957508;28;20470;-72
2023/06/26 08:02:34;;;;;;;0.70;0.20;;;25.90;1.00;;;;;;4975047;28;20446;-72
2023/06/26 08:05:04;;;;;;;0.70;0.20;;;26.00;1.00;;;;;;4977012;28;20461;-73
2023/06/26 08:07:32;;;;;;;0.70;0.20;;;26.10;1.00;;;;;;4984819;28;20450;-71
2023/06/26 08:10:00;;;;;;;0.80;0.30;;;;;;;;;;4976408;28;20453;-71
2023/06/26 08:12:29;;;;;;;1.33;1.03;;;;;;;;;;4947403;29;20562;-73
2023/06/26 08:14:57;;;;;;;5.43;2.53;;;26.20;1.00;;;;;;4968316;28;20488;-72
2023/06/26 08:17:25;;;;;;;4.20;1.43;;;26.30;1.00;;;;;;4971780;28;20473;-71
2023/06/26 08:19:57;;;;;;;0.70;0.10;;;26.30;1.00;;;;;;4974235;28;20450;-71
2023/06/26 08:22:26;;;;;;;4.00;1.87;;;26.50;1.00;;;;;;4965421;28;20549;-72
2023/06/26 08:24:54;;;;;;;0.80;0.40;;;26.60;1.00;;;;;;4968711;28;20569;-72
2023/06/26 08:27:23;;;;;;;2.10;1.17;;;;;;;;;;4966903;28;20453;-70
2023/06/26 08:29:52;;;;;;;1.43;1.30;;;;;;;;;;4971652;28;20477;-70
2023/06/26 08:32:21;;;;;;;0.70;0.20;;;;;;;;;;4978027;28;20462;-71
2023/06/26 08:34:50;;;;;;;0.70;0.10;;;26.70;1.00;;;;;;4970263;28;20466;-71
2023/06/26 08:37:18;;;;;;;0.70;0.23;;;26.70;1.00;;;;;;4963975;28;20455;-73
2023/06/26 08:39:48;;;;;;;1.40;1.23;;;26.70;1.00;;;;;;4970916;28;20494;-72
2023/06/26 08:42:17;;;;;;;1.20;1.07;;;26.80;1.00;;;;;;4955160;28;20510;-72
2023/06/26 08:44:45;;;;;;;0.93;0.83;;;26.70;1.00;;;;;;4967502;28;20550;-71
2023/06/26 08:47:28;;;;;;;0.90;0.47;;;26.60;1.00;;;;;;4957313;29;20545;-71
2023/06/26 08:50:07;;;;;;;0.80;0.50;;;26.60;1.00;;;;;;4955946;29;20520;-71
2023/06/26 08:52:41;;;;;;;0.70;0.20;;;26.70;1.00;;;;;;4967522;28;20473;-71
2023/06/26 08:55:13;;;;;;;0.70;0.20;;;26.70;1.00;;;;;;4963201;28;20993;-72
2023/06/26 08:57:41;;;;;;;0.70;0.20;;;27.00;1.00;;;;;;4945403;28;20884;-72
2023/06/26 09:00:11;;;;;;;2.13;1.33;;;27.10;1.00;;;;;;4964302;28;20461;-72
2023/06/26 09:02:41;;;;;;;0.70;0.30;;;27.20;1.00;;;;;;4954139;28;20961;-71
2023/06/26 09:05:13;;;;;;;0.90;0.50;;;27.40;1.00;;;;;;4955166;29;20467;-71
2023/06/26 09:07:41;;;;;;;2.33;2.13;;;27.30;1.00;;;;;;4954710;29;20544;-71
2023/06/26 09:10:11;;;;;;;0.80;0.30;;;27.30;1.00;;;;;;4954440;29;20498;-70
2023/06/26 09:12:39;;;;;;;36.23;7.67;;;27.40;1.00;;;;;;4936480;29;20506;-71
2023/06/26 09:15:08;;;;;;;0.70;0.20;;;27.40;1.00;;;;;;4936824;29;20522;-71
2023/06/26 09:17:41;;;;;;;1.20;0.37;;;27.50;1.00;;;;;;4936799;29;20444;-71
2023/06/26 09:20:10;;;;;;;0.70;0.10;;;27.80;1.00;;;;;;4936674;29;20872;-71
2023/06/26 09:22:39;;;;;;;3.83;2.17;;;27.80;1.00;;;;;;4938208;29;20481;-71
2023/06/26 09:25:08;;;;;;;0.70;0.20;;;27.80;1.00;;;;;;4938820;29;20630;-71
2023/06/26 09:27:37;;;;;;;2.30;1.50;;;27.80;1.00;;;;;;4952851;29;21250;-72
2023/06/26 09:30:07;;;;;;;0.80;0.43;;;27.80;1.00;;;;;;4944732;29;20511;-70
2023/06/26 09:32:36;;;;;;;2.20;0.87;;;28.00;1.00;;;;;;4948328;29;20483;-72
2023/06/26 09:35:06;;;;;;;2.10;0.87;;;28.10;1.00;;;;;;4949794;29;21014;-72
2023/06/26 09:37:35;;;;;;;0.70;0.20;;;28.10;1.00;;;;;;4949323;29;20454;-71
2023/06/26 09:40:03;;;;;;;0.70;0.10;;;28.20;1.00;;;;;;4952117;29;20550;-72
2023/06/26 09:42:31;;;;;;;1.83;1.10;;;28.30;1.00;;;;;;4954337;29;20494;-71
2023/06/26 09:45:00;;;;;;;1.20;0.80;;;28.30;1.00;;;;;;4949705;29;20469;-73
2023/06/26 09:47:31;;;;;;;1.87;1.50;;;27.60;1.00;;;;;;4946133;28;20452;-71
2023/06/26 09:49:59;;;;;;;1.00;0.83;;;28.00;1.00;;;;;;4964179;28;20485;-71
2023/06/26 09:52:29;;;;;;;0.70;0.30;;;27.90;1.00;;;;;;4972204;28;20497;-72
2023/06/26 09:55:08;;;;;;;0.70;0.10;;;28.10;1.00;;;;;;4965044;28;20533;-73
2023/06/26 09:57:36;;;;;;;0.70;0.20;;;28.40;1.00;;;;;;4934397;29;20502;-72
2023/06/26 10:00:08;;;;;;;1.03;0.40;;;28.40;1.00;;;;;;4934372;29;20475;-72
2023/06/26 10:02:36;;;;;;;1.30;1.20;;;28.40;1.00;;;;;;4937549;29;21014;-72
2023/06/26 10:05:04;;;;;;;2.00;1.90;;;28.50;1.00;;;;;;4938097;29;20535;-72
2023/06/26 10:07:32;;;;;;;4.97;2.70;;;28.50;1.00;;;;;;4938520;29;20840;-70
2023/06/26 10:10:03;;;;;;;0.70;0.20;;;28.50;1.00;;;;;;4938459;29;20523;-71
2023/06/26 10:12:33;;;;;;;0.70;0.20;;;28.50;1.00;;;;;;4955958;29;20479;-71
2023/06/26 10:15:04;;;;;;;0.70;0.20;;;;;;;;;;4969754;23;21006;-71
2023/06/26 10:17:37;;;;;;;1.00;0.80;;;28.70;1.00;;;;;;4954497;29;20490;-71
2023/06/26 10:20:09;;;;;;;0.80;0.57;;;28.90;1.00;;;;;;4953623;28;20442;-71
2023/06/26 10:22:43;;;;;;;1.20;0.87;;;28.80;1.00;;;;;;4962242;28;20436;-70
2023/06/26 10:25:14;;;;;;;1.10;1.00;;;28.60;1.00;;;;;;4961703;28;20508;-70
2023/06/26 10:27:45;;;;;;;0.70;0.20;;;28.50;1.00;;;;;;4962403;28;20445;-70
2023/06/26 10:30:17;;;;;;;0.80;0.40;;;28.50;1.00;;;;;;4972945;28;20486;-69
2023/06/26 10:32:46;;;;;;;1.33;0.63;;;26.50;1.00;;;;;;4970064;28;20453;-70
2023/06/26 10:35:15;;;;;;;4.93;2.33;;;28.40;1.00;;;;;;4955184;29;20466;-70
2023/06/26 10:37:44;;;;;;;0.70;0.20;;;28.40;1.00;;;;;;4962979;28;20547;-70
2023/06/26 10:40:13;;;;;;;0.70;0.20;;;28.40;1.00;;;;;;4955090;29;20466;-71
2023/06/26 10:42:41;;;;;;;0.90;0.50;;;28.50;1.00;;;;;;4954736;28;20514;-70
2023/06/26 10:45:15;;;;;;;5.90;1.63;;;28.60;1.00;;;;;;4975661;28;20491;-70
2023/06/26 10:47:48;;;;;;;0.70;0.17;;;28.60;1.00;;;;;;4981357;28;20443;-71
2023/06/26 10:50:28;;;;;;;0.70;0.13;;;28.70;1.00;;;;;;4974957;28;20477;-70
2023/06/26 10:53:10;;;;;;;0.80;0.30;;;28.80;1.00;;;;;;4972192;28;20546;-72
2023/06/26 10:55:38;;;;;;;1.40;0.67;;;28.90;1.00;;;;;;4971773;28;20466;-70
2023/06/26 10:58:31;;;;;;;0.70;0.30;;;29.00;1.00;;;;;;4971831;28;20881;-69
2023/06/26 11:01:23;;;;;;;0.70;0.20;;;28.90;1.00;;;;;;4973207;28;20448;-70
2023/06/26 11:04:10;;;;;;;0.70;0.20;;;;;;;;;;4966253;28;20456;-70
2023/06/26 11:06:39;;;;;;;3.80;1.07;;;28.80;1.00;;;;;;4973835;28;20454;-70
2023/06/26 11:09:10;;;;;;;0.70;0.10;;;28.80;1.00;;;;;;4973291;28;20873;-70
2023/06/26 11:12:05;;;;;;;1.70;1.60;;;28.40;1.00;;;;;;4953400;28;20455;-70
2023/06/26 11:14:34;;;;;;;0.70;0.30;;;28.40;1.00;;;;;;4971300;28;20546;-71
2023/06/26 11:17:05;;;;;;;0.70;0.10;;;28.50;1.00;;;;;;4977636;28;20478;-70
2023/06/26 11:19:34;;;;;;;0.80;0.53;;;28.70;1.00;;;;;;4977139;28;20450;-70
2023/06/26 11:22:06;;;;;;;1.20;0.20;;;28.70;1.00;;;;;;4976968;28;20445;-71
2023/06/26 11:24:34;;;;;;;0.70;0.10;;;28.80;1.00;;;;;;4966856;28;20521;-71
2023/06/26 11:27:03;;;;;;;0.70;0.20;;;28.80;1.00;;;;;;4957876;28;20451;-71
2023/06/26 11:29:34;;;;;;;1.70;1.53;;;28.90;1.00;;;;;;4957837;29;20502;-70
2023/06/26 11:32:05;;;;;;;0.70;0.20;;;29.00;1.00;;;;;;4957737;29;20529;-70
2023/06/26 11:34:34;;;;;;;0.90;0.60;;;28.90;1.00;;;;;;4968504;28;20982;-70
2023/06/26 11:37:03;;;;;;;1.10;0.93;;;29.00;1.00;;;;;;4970815;28;20927;-72
2023/06/26 11:39:31;;;;;;;0.70;0.13;;;28.80;1.00;;;;;;4967147;28;20488;-74
2023/06/26 11:42:01;;;;;;;0.90;0.40;;;28.90;1.00;;;;;;4957776;28;20449;-73
2023/06/26 11:44:40;;;;;;;0.80;0.40;;;29.00;1.00;;;;;;4965417;28;20481;-74
2023/06/26 11:47:08;;;;;;;1.33;0.90;;;29.20;1.00;;;;;;4972437;28;20448;-70
2023/06/26 11:49:36;;;;;;;0.70;0.40;;;29.30;1.00;;;;;;4976171;28;20453;-70
2023/06/26 11:52:04;;;;;;;0.70;0.20;;;29.30;1.00;;;;;;4976888;28;20892;-69
2023/06/26 11:54:32;;;;;;;0.70;0.10;;;29.50;1.00;;;;;;4976318;28;20514;-70
2023/06/26 11:57:01;;;;;;;0.70;0.10;;;29.50;1.00;;;;;;4965837;28;20460;-73
2023/06/26 11:59:37;;;;;;;2.83;1.17;;;29.50;1.00;;;;;;4961029;28;20449;-71
2023/06/26 12:02:11;;;;;;;0.80;0.60;;;29.60;1.00;;;;;;4976744;28;20456;-71
2023/06/26 12:04:44;;;;;;;0.70;0.10;;;29.70;1.00;;;;;;4976679;28;20545;-71
2023/06/26 12:07:13;;;;;;;0.70;0.30;;;29.70;1.00;;;;;;4978162;28;20462;-71
2023/06/26 12:09:45;;;;;;;0.70;0.20;;;29.70;1.00;;;;;;4974983;28;20461;-70
2023/06/26 12:12:15;;;;;;;1.00;0.47;;;29.60;1.00;;;;;;4969414;28;20533;-71
2023/06/26 12:14:44;;;;;;;0.70;0.10;;;29.40;1.00;;;;;;4975651;28;20877;-71
2023/06/26 12:17:15;;;;;;;0.70;0.20;;;29.40;1.00;;;;;;4977328;28;20514;-70
2023/06/26 12:19:45;;;;;;;0.90;0.40;;;29.60;1.00;;;;;;4976090;28;20515;-71
2023/06/26 12:22:13;;;;;;;0.97;0.30;;;29.60;1.00;;;;;;4975781;28;20447;-70
2023/06/26 12:24:42;;;;;;;0.70;0.20;;;29.50;1.00;;;;;;4976445;28;20557;-70
2023/06/26 12:27:11;;;;;;;0.90;0.47;;;;;;;;;;4975595;28;20443;-70
2023/06/26 12:29:41;;;;;;;0.70;0.20;;;29.40;1.00;;;;;;4975694;28;20466;-70
2023/06/26 12:32:12;;;;;;;0.80;0.40;;;29.40;1.00;;;;;;4975977;28;20526;-70
2023/06/26 12:34:40;;;;;;;0.70;0.10;;;29.40;1.00;;;;;;4975775;28;20467;-71
2023/06/26 12:37:10;;;;;;;3.93;2.90;;;29.40;1.00;;;;;;4975818;28;20946;-70
2023/06/26 12:39:49;;;;;;;1.10;0.93;;;29.40;1.00;;;;;;4976019;28;20983;-71
2023/06/26 12:42:18;;;;;;;0.70;0.20;;;29.40;1.00;;;;;;4970879;28;20581;-69
2023/06/26 12:44:47;;;;;;;0.70;0.30;;;29.60;1.00;;;;;;4966117;28;20476;-70
2023/06/26 12:47:17;;;;;;;0.70;0.20;;;29.60;1.00;;;;;;4968112;28;20464;-70
2023/06/26 12:49:50;;;;;;;1.10;0.67;;;29.60;1.00;;;;;;4956471;29;20447;-70
2023/06/26 12:52:18;;;;;;;0.70;0.10;;;29.50;1.00;;;;;;4957184;28;20901;-71
2023/06/26 12:54:47;;;;;;;0.70;0.40;;;29.50;1.00;;;;;;4963817;28;20518;-70
2023/06/26 12:57:15;;;;;;;0.90;0.43;;;29.50;1.00;;;;;;4965073;28;20444;-70
2023/06/26 12:59:44;;;;;;;2.30;2.20;;;29.40;1.00;;;;;;4977251;28;20549;-69
2023/06/26 13:02:12;;;;;;;0.80;0.30;;;29.50;1.00;;;;;;4981272;28;20494;-70
2023/06/26 13:04:44;;;;;;;0.90;0.30;;;29.40;1.00;;;;;;4976977;28;20517;-70
2023/06/26 13:07:12;;;;;;;0.70;0.20;;;29.30;1.00;;;;;;4964986;28;20505;-70
2023/06/26 13:09:41;;;;;;;0.80;0.40;;;29.20;1.00;;;;;;4968226;28;20482;-70
2023/06/26 13:12:09;;;;;;;0.70;0.20;;;29.10;1.00;;;;;;4958865;28;20584;-70
2023/06/26 13:14:38;;;;;;;0.90;0.40;;;29.20;1.00;;;;;;4960639;28;20488;-70
2023/06/26 13:17:06;;;;;;;0.80;0.20;;;29.10;1.00;;;;;;4967356;28;20468;-70
2023/06/26 13:19:37;;;;;;;0.80;0.47;;;29.00;1.00;;;;;;4966005;28;20453;-70
2023/06/26 13:22:06;;;;;;;0.80;0.20;;;28.90;1.00;;;;;;4974838;28;21033;-71
2023/06/26 13:24:34;;;;;;;0.70;0.20;;;29.10;1.00;;;;;;4974735;28;20989;-70
2023/06/26 13:27:02;;;;;;;1.57;1.47;;;29.20;1.00;;;;;;4974628;28;20447;-68
2023/06/26 13:29:30;;;;;;;1.07;0.57;;;29.20;1.00;;;;;;4974931;28;20476;-70
2023/06/26 13:31:58;;;;;;;1.30;0.97;;;29.20;1.00;;;;;;4974256;28;20570;-70
2023/06/26 13:34:28;;;;;;;1.20;0.60;;;29.20;1.00;;;;;;4970032;28;20501;-70
2023/06/26 13:36:59;;;;;;;0.70;0.10;;;29.10;1.00;;;;;;4972985;28;20487;-69
2023/06/26 13:39:28;;;;;;;1.20;0.70;;;29.10;1.00;;;;;;4967263;28;20454;-70
2023/06/26 13:41:56;;;;;;;2.53;2.43;;;29.00;1.00;;;;;;4972304;28;20491;-70
2023/06/26 13:44:25;;;;;;;0.90;0.23;;;29.00;1.00;;;;;;4963983;28;20464;-70
2023/06/26 13:47:05;;;;;;;1.53;1.13;;;29.10;1.00;;;;;;4964052;28;20491;-69
2023/06/26 13:49:37;;;;;;;3.63;0.80;;;28.90;1.00;;;;;;4965569;28;21178;-69
2023/06/26 13:52:07;;;;;;;0.93;0.57;;;28.80;1.00;;;;;;4966273;28;20583;-69
2023/06/26 13:54:36;;;;;;;1.13;0.83;;;28.80;1.00;;;;;;4962979;28;20463;-70
2023/06/26 13:57:05;;;;;;;1.20;0.37;;;28.80;1.00;;;;;;4957165;28;20444;-69
2023/06/26 13:59:33;;;;;;;0.70;0.10;;;28.70;1.00;;;;;;4955990;29;20488;-69
2023/06/26 14:02:01;;;;;;;0.70;0.20;;;28.70;1.00;;;;;;4960456;28;20443;-69
2023/06/26 14:04:29;;;;;;;0.70;0.20;;;28.70;1.00;;;;;;4962481;28;20492;-69
2023/06/26 14:06:57;;;;;;;1.00;0.60;;;28.70;1.00;;;;;;4965775;28;20542;-69
2023/06/26 14:09:25;;;;;;;1.23;1.07;;;;;;;;;;4967995;28;20496;-69
2023/06/26 14:11:55;;;;;;;0.80;0.40;;;28.90;1.00;;;;;;4963566;28;20494;-68
2023/06/26 14:14:23;;;;;;;0.90;0.20;;;28.90;1.00;;;;;;4955833;28;20452;-70
2023/06/26 14:16:50;;;;;;;2.00;0.87;;;29.00;1.00;;;;;;4967074;28;20503;-69
2023/06/26 14:19:18;;;;;;;1.07;0.30;;;29.00;1.00;;;;;;4971560;28;20459;-70
2023/06/26 14:21:46;;;;;;;0.90;0.20;;;29.00;1.00;;;;;;4964793;28;20521;-68
2023/06/26 14:24:14;;;;;;;3.63;0.80;;;;;;;;;;4963460;28;20981;-68
2023/06/26 14:26:42;;;;;;;0.97;0.50;;;28.90;1.00;;;;;;4961069;28;20464;-69
2023/06/26 14:29:12;;;;;;;0.80;0.43;;;28.90;1.00;;;;;;4960858;28;20510;-68
2023/06/26 14:31:40;;;;;;;1.33;0.63;;;28.80;1.00;;;;;;4967448;28;20591;-69
2023/06/26 14:34:08;;;;;;;0.70;0.37;;;28.70;1.00;;;;;;4953864;28;20488;-69
2023/06/26 14:36:37;;;;;;;0.70;0.20;;;28.70;1.00;;;;;;4962124;28;20786;-68
2023/06/26 14:39:05;;;;;;;0.70;0.10;;;28.70;1.00;;;;;;4966330;28;20492;-69
2023/06/26 14:41:34;;;;;;;0.80;0.40;;;28.70;1.00;;;;;;4958658;28;20540;-69
2023/06/26 14:44:02;;;;;;;0.80;0.53;;;28.70;1.00;;;;;;4962362;28;20440;-69
2023/06/26 14:46:32;;;;;;;0.80;0.77;;;28.70;1.00;;;;;;4954020;28;20494;-68
2023/06/26 14:49:00;;;;;;;0.70;0.20;;;28.70;1.00;;;;;;4954265;28;20550;-69
2023/06/26 14:51:29;;;;;;;0.70;0.10;;;28.80;1.00;;;;;;4965186;28;20494;-68
2023/06/26 14:53:56;;;;;;;0.70;0.20;;;28.80;1.00;;;;;;4970662;28;20550;-70
2023/06/26 14:56:25;;;;;;;0.83;0.57;;;28.70;1.00;;;;;;4956601;28;20551;-69
2023/06/26 14:58:53;;;;;;;0.70;0.10;;;28.60;1.00;;;;;;4968160;28;20549;-68
2023/06/26 15:01:22;;;;;;;0.70;0.20;;;;;;;;;;4963363;28;20470;-69
2023/06/26 15:03:51;;;;;;;0.70;0.10;;;28.60;1.00;;;;;;4962044;28;20549;-68
2023/06/26 15:06:19;;;;;;;0.70;0.23;;;28.60;1.00;;;;;;4961220;28;20479;-70
2023/06/26 15:08:47;;;;;;;0.70;0.30;;;28.60;1.00;;;;;;4966439;28;20443;-69
2023/06/26 15:11:15;;;;;;;0.80;0.33;;;28.70;1.00;;;;;;4969683;28;20842;-69
2023/06/26 15:13:43;;;;;;;1.23;0.73;;;28.30;1.00;;;;;;4953680;29;21078;-68
2023/06/26 15:16:11;;;;;;;0.70;0.13;;;28.70;1.00;;;;;;4953858;28;20497;-69
2023/06/26 15:18:39;;;;;;;0.97;0.67;;;28.80;1.00;;;;;;4955579;28;20811;-70
2023/06/26 15:21:08;;;;;;;0.70;0.10;;;28.80;1.00;;;;;;4961347;28;20518;-69
2023/06/26 15:23:36;;;;;;;0.70;0.10;;;28.80;1.00;;;;;;4964651;28;20443;-70
2023/06/26 15:26:04;;;;;;;0.90;0.50;;;28.60;1.00;;;;;;4972844;28;20473;-68
2023/06/26 15:28:32;;;;;;;2.20;1.90;;;28.60;1.00;;;;;;4965342;28;20944;-69
2023/06/26 15:31:00;;;;;;;0.70;0.20;;;28.60;1.00;;;;;;4958999;28;20965;-69
2023/06/26 15:33:28;;;;;;;0.70;0.37;;;28.60;1.00;;;;;;4970577;28;20530;-73
2023/06/26 15:35:55;;;;;;;0.70;0.10;;;28.80;1.00;;;;;;4972565;28;20469;-67
2023/06/26 15:38:25;;;;;;;0.70;0.30;;;28.80;1.00;;;;;;4972974;28;20490;-70
2023/06/26 15:40:53;;;;;;;0.70;0.10;;;29.00;1.00;;;;;;4972568;28;20855;-69
2023/06/26 15:43:21;;;;;;;0.80;0.30;;;28.90;1.00;;;;;;4973241;28;20442;-69
2023/06/26 15:45:49;;;;;;;0.70;0.20;;;28.90;1.00;;;;;;4973068;28;20474;-69
2023/06/26 15:48:17;;;;;;;0.70;0.17;;;28.80;1.00;;;;;;4971880;28;20521;-69
2023/06/26 15:50:45;;;;;;;0.70;0.20;;;28.90;1.00;;;;;;4960727;28;20484;-68
2023/06/26 15:53:17;;;;;;;0.70;0.20;;;28.90;1.00;;;;;;4966432;28;20527;-69
2023/06/26 15:55:47;;;;;;;0.70;0.10;;;;;;;;;;4960598;28;20482;-68
2023/06/26 15:58:14;;;;;;;0.70;0.30;;;28.90;1.00;;;;;;4970245;28;20515;-68
2023/06/26 16:00:42;;;;;;;0.70;0.20;;;28.90;1.00;;;;;;4972145;28;20541;-70
2023/06/26 16:03:10;;;;;;;0.70;0.20;;;28.80;1.00;;;;;;4960661;28;20534;-69
2023/06/26 16:05:38;;;;;;;0.70;0.20;;;28.90;1.00;;;;;;4975589;28;20554;-69
2023/06/26 16:08:06;;;;;;;0.70;0.20;;;29.00;1.00;;;;;;4973681;28;20452;-69
2023/06/26 16:10:34;;;;;;;0.70;0.20;;;29.10;1.00;;;;;;4957767;28;20445;-69
2023/06/26 16:13:03;;;;;;;0.70;0.10;;;29.20;1.00;;;;;;4974047;28;21094;-70
2023/06/26 16:15:32;;;;;;;0.70;0.10;;;29.10;1.00;;;;;;4983417;23;20501;-71
2023/06/26 16:17:59;;;;;;;0.90;0.23;;;29.20;1.00;;;;;;4930319;29;20491;-71
2023/06/26 16:20:28;;;;;;;0.70;0.20;;;;;;;;;;4939838;29;20490;-71
2023/06/26 16:22:56;;;;;;;0.70;0.20;;;29.10;1.00;;;;;;4933181;29;20488;-70
2023/06/26 16:25:24;;;;;;;1.03;0.40;;;29.00;1.00;;;;;;4938170;29;20515;-71
2023/06/26 16:27:52;;;;;;;0.70;0.10;;;29.00;1.00;;;;;;4937358;29;20480;-72
2023/06/26 16:30:21;;;;;;;0.90;0.43;;;28.80;1.00;;;;;;4937734;29;20472;-69
2023/06/26 16:32:49;;;;;;;0.70;0.20;;;28.80;1.00;;;;;;4937570;29;20489;-71
2023/06/26 16:35:17;;;;;;;0.70;0.10;;;28.90;1.00;;;;;;4938569;29;20477;-71
2023/06/26 16:37:44;;;;;;;0.70;0.10;;;28.80;1.00;;;;;;4930105;29;20489;-71
2023/06/26 16:40:14;;;;;;;0.90;0.40;;;28.80;1.00;;;;;;4938095;29;20448;-71
2023/06/26 16:42:43;;;;;;;0.80;0.20;;;29.00;1.00;;;;;;4930719;29;20537;-71
2023/06/26 16:45:11;;;;;;;1.63;0.83;;;28.80;1.00;;;;;;4938754;29;20531;-71
2023/06/26 16:47:40;;;;;;;0.77;0.20;;;28.90;1.00;;;;;;4938659;29;20451;-70
2023/06/26 16:50:09;;;;;;;0.90;0.30;;;28.90;1.00;;;;;;4939382;29;20457;-69
2023/06/26 16:52:37;;;;;;;0.70;0.20;;;28.90;1.00;;;;;;4930678;29;20559;-71
2023/06/26 16:55:06;;;;;;;0.70;0.20;;;28.80;1.00;;;;;;4938737;29;20486;-71
2023/06/26 16:57:34;;;;;;;0.70;0.10;;;28.80;1.00;;;;;;4938654;29;20479;-71
2023/06/26 17:00:03;;;;;;;0.70;0.30;;;28.80;1.00;;;;;;4938083;29;20484;-69
2023/06/26 17:02:31;;;;;;;0.70;0.10;;;28.80;1.00;;;;;;4936730;29;20453;-70
2023/06/26 17:05:01;;;;;;;0.70;0.20;;;28.80;1.00;;;;;;4936674;29;20821;-70
2023/06/26 17:07:30;;;;;;;0.70;0.20;;;28.90;1.00;;;;;;4933593;29;20500;-71
2023/06/26 17:09:58;;;;;;;0.70;0.20;;;29.00;1.00;;;;;;4936605;29;21006;-70
2023/06/26 17:12:26;;;;;;;0.70;0.20;;;29.10;1.00;;;;;;4936190;29;20521;-71
2023/06/26 17:14:54;;;;;;;0.70;0.20;;;29.20;1.00;;;;;;4942503;28;20454;-69